Fédération internationale de Ski
Member Section
Print

OFFICIAL RESULTS

Big Sky Resort (USA) 08.01.2017

University Race - Men's Giant Slalom

Race codex : 0500
Valid for FIS Points : YES
Jury
TD FIS NUNNIKHOVEN TONY USA
Referee Anderson, Mark USA
Chief of Race Ueland, Jeremy USA
Technical Data
Start Altitude 2600 m.
Finish Altitude 2299 m.
Vertical Drop 301 m.
Homologation Number 11023/10/13
Run 1
Course Setter Downing, Josiah USA
Number of Gates 42
Turning Gates 40
Start Time 11:00
Run 2
Course Setter Spencer, Dane USA
Number of Gates 43
Turning Gates 41
Start Time 14:00
 
Show more info»

Competitors

Display filter form
Rank Bib FIS Code Name Year Nation Run 1 Run 2 Total Time Diff. FIS Points
 1  12  6530486 KRAUSE Nicholas  1993  USA   1:03.51  1:05.15  2:08.66     11.30
 2  3  6530453 DUPRATT Samuel  1993  USA   1:03.62  1:05.97  2:09.59  +0.93  18.38
 3  4  422275 JOHANSEN Ola Buer  1993  NOR   1:03.90  1:05.79  2:09.69  +1.03  19.15
 4  2  180737 LUUKKO Max  1994  FIN   1:04.22  1:05.86  2:10.08  +1.42  22.12
 5  13  202485 KETTERER David  1993  GER   1:04.40  1:05.86  2:10.26  +1.60  23.49
 6  5  6531217 WEISEL Kipling  1995  USA   1:04.91  1:05.42  2:10.33  +1.67  24.02
 7  8  422305 BAKKE Morten Ungersness  1994  NOR   1:04.50  1:06.16  2:10.66  +2.00  26.53
 8  15  6531127 DUFFY Drew  1995  USA   1:04.40  1:06.53  2:10.93  +2.27  28.59
 9  14  6531474 DVORACEK Addison  1996  USA   1:05.27  1:05.75  2:11.02  +2.36  29.28
 10  6  422134 BJERTNESS Endre  1992  NOR   1:05.00  1:06.36  2:11.36  +2.70  31.87
 11  7  40523 DEMSCHAR Dominic  1993  AUS   1:05.05  1:06.39  2:11.44  +2.78  32.48
 12  27  103942 BELL Jeffrey  1993  CAN   1:05.57  1:06.11  2:11.68  +3.02  34.30
 13  11  422248 BUSENGDAL Vegard  1993  NOR   1:05.78  1:05.91  2:11.69  +3.03  34.38
 14  9  6531472 DRILLER Garret  1996  USA   1:04.97  1:06.97  2:11.94  +3.28  36.28
 15  35  104097 UNTERBERGER Dominic  1994  CAN   1:05.08  1:07.11  2:12.19  +3.53  38.19
 16  10  422498 WAHL Mikkel K.  1996  NOR   1:04.87  1:07.46  2:12.33  +3.67  39.25
 17  36  422497 VOELLO Oskar Rosberg  1996  NOR   1:05.99  1:06.43  2:12.42  +3.76  39.94
 18  26  6531160 LEEVER Alex  1995  USA   1:05.57  1:07.00  2:12.57  +3.91  41.08
 19  16  104133 GREIG Rob  1994  CAN   1:06.19  1:06.46  2:12.65  +3.99  41.69
 20  32  6531192 SANTANIELLO Nick  1995  USA   1:05.96  1:06.91  2:12.87  +4.21  43.37
 21  19  380318 BRIGOVIC Sebastian  1992  CRO   1:05.55  1:07.37  2:12.92  +4.26  43.75
 22  28  6531228 BAROUNOS Alex  1995  GBR   1:06.05  1:06.89  2:12.94  +4.28  43.90
 23  23  103953 CARRY Roger  1993  CAN   1:05.57  1:07.80  2:13.37  +4.71  47.18
 24  33  104215 CARRY Patrick  1995  CAN   1:06.13  1:07.32  2:13.45  +4.79  47.79
 25  25  422001 BRATH Joergen  1991  NOR   1:06.43  1:07.04  2:13.47  +4.81  47.94
 26  34  6531203 SPROCK Ty  1995  USA   1:06.63  1:06.89  2:13.52  +4.86  48.32
 27  24  104311 GRASIC Martin  1995  CAN   1:06.62  1:07.06  2:13.68  +5.02  49.54
 28  30  501508 NYBERG Jonas  1990  SWE   1:06.06  1:07.78  2:13.84  +5.18  50.76
 29  39  6531145 HALL Max  1995  USA   1:06.06  1:07.83  2:13.89  +5.23  51.14
 30  41  104156 NACIUK Anthony  1994  CAN   1:06.66  1:07.35  2:14.01  +5.35  52.05
 31  31  860005 BRACHNER Patrick  1992  AZE   1:06.70  1:07.83  2:14.53  +5.87  56.01
 32  20  6530814 MOYER Bobby  1994  USA   1:06.78  1:07.96  2:14.74  +6.08  57.61
 33  45  103994 MCKILLOP Curtis  1993  CAN   1:07.64  1:07.23  2:14.87  +6.21  58.60
 34  47  6532009 CASHMAN Jordan  1997  USA   1:06.80  1:08.67  2:15.47  +6.81  63.17
 35  18  103646 ZAITSOFF Sasha  1990  CAN   1:06.79  1:08.82  2:15.61  +6.95  64.24
 36  54  6530661 MCDONALD Conor  1993  USA   1:07.06  1:08.78  2:15.84  +7.18  65.99
 37  65  6532080 VAN VUUREN Arie  1997  GBR   1:07.60  1:08.85  2:16.45  +7.79  70.64
 38  43  6532137 BIRKNER Alexander  1998  USA   1:07.59  1:08.89  2:16.48  +7.82  70.86
 39  117  561278 REICH - POGLADIC Andraz  1993  SLO   1:07.01  1:09.50  2:16.51  +7.85  71.09
 40  48  6531843 COLBY Alex  1997  USA   1:07.27  1:09.29  2:16.56  +7.90  71.47
 41  46  320391 KIM Dong-woo  1995  KOR   1:07.76  1:08.84  2:16.60  +7.94  71.78
 42  42  6530800 THEIS Tyler  1994  USA   1:07.92  1:08.90  2:16.82  +8.16  73.45
 43  53  501810 HOEGBOM Erik  1992  SWE   1:08.40  1:08.87  2:17.27  +8.61  76.88
 44  49  410393 JUNEAU Tai  1995  NZL   1:08.74  1:09.41  2:18.15  +9.49  83.59
 45  55  6530496 MCCORMICK Sean  1993  USA   1:08.61  1:09.89  2:18.50  +9.84  86.25
 45  44  104346 LEGREE Ben  1996  CAN   1:08.54  1:09.96  2:18.50  +9.84  86.25
 47  50  6531587 BLACK Garett  1996  USA   1:08.56  1:10.42  2:18.98  +10.32  89.91
 48  58  6530580 BLACK Graham  1993  USA   1:08.77  1:10.26  2:19.03  +10.37  90.29
 49  72  501990 WALLER Anton  1994  SWE   1:09.07  1:10.64  2:19.71  +11.05  95.47
 50  64  6532199 HAKOSHIMA Henry  1998  USA   1:08.77  1:11.03  2:19.80  +11.14  96.15
 51  60  6532126 GOSS Harrison  1998  USA   1:10.57  1:09.61  2:20.18  +11.52  99.05
 52  52  6532129 KILGORE Riley  1998  USA   1:09.77  1:10.44  2:20.21  +11.55  99.28
 53  63  250361 AUDUNSSON Kristinn-Logi  1995  ISL   1:09.74  1:10.95  2:20.69  +12.03  102.93
 54  59  320323 KIM Seul-kyung  1991  KOR   1:10.37  1:10.39  2:20.76  +12.10  103.47
 55  75  6532662 SEYMOUR Chase  2000  USA   1:10.46  1:10.44  2:20.90  +12.24  104.53
 56  68  750107 BOZHINOVSKI Luka  1998  MKD   1:09.66  1:11.78  2:21.44  +12.78  108.64
 57  69  6532121 CARLSON Hunter  1998  USA   1:09.60  1:12.36  2:21.96  +13.30  112.61
 58  73  6532391 RIZZOTTI Trevor  1999  USA   1:10.78  1:12.25  2:23.03  +14.37  120.76
 59  51  380370 GOBEC Luka  1997  CRO   1:09.14  1:14.14  2:23.28  +14.62  122.66
 60  76  6532120 GARRIGUS Adam  1998  USA   1:11.04  1:13.04  2:24.08  +15.42  128.75
 61  78  501929 HOLMLUND Elias  1994  SWE   1:12.05  1:12.26  2:24.31  +15.65  130.51
 62  80  6532333 BURKITT Jack  1999  USA   1:11.83  1:13.50  2:25.33  +16.67  138.27
 63  81  6532447 DRAKE Jacob  1999  USA   1:11.64  1:14.03  2:25.67  +17.01  140.86
 64  82  6532441 RINEHART Dawson  1999  USA   1:13.37  1:14.98  2:28.35  +19.69  161.28
 65  86  6532622 ROGERS Samuel  2000  USA   1:14.68  1:16.37  2:31.05  +22.39  181.84
 66  84  6532533 BRANDON Will  1999  USA   1:18.04  1:19.03  2:37.07  +28.41  227.70
 67  87  6532700 JOHNSON Sam  2000  USA   1:18.88  1:22.00  2:40.88  +32.22  256.72
 68  85  6532437 STEVENSON Kellan  1998  USA   1:20.16  1:21.88  2:42.04  +33.38  265.55
Did not start 2nd run
   22  501384 LINDGREN Tim  1989  SWE           
Did not start 1st run
   67  250379 HAUKSSON Sigurdur  1996  ISL           
   61  6531346 SULLIVAN Bridger  1995  USA           
   57  550061 ONSKULIS Martins  1994  LAT           
   38  6290244 NOGARA Nicolo  1992  ITA           
Did not finish 2nd run
   71  320370 LEE Dong-geun  1994  KOR           
   56  502163 KLEIN Isak  1996  SWE           
   37  430617 CHRAPEK Adam  1993  POL           
   29  6531178 NORTON Hughston  1995  USA           
Did not finish 1st run
   83  40660 SPANOS Billy  2000  AUS           
   79  6532395 SHEA Steve  1999  USA           
   77  6532152 MIKKELSON Zachary  1998  USA           
   74  310410 VUKOVIC Andrija  1994  SRB           
   70  104338 CORNELL Drew  1996  CAN           
   66  6532146 DEWOLFE Kristian  1998  USA           
   62  6532193 MCCONNELL Will  1998  USA           
   40  6531259 VETH Nicolas  1995  USA           
   21  54171 NEUHAUSER David  1993  AUT           
   1  6530454 FARROW Tanner  1993  USA